createdAt,value
2019-03-31T00:00:40.863Z,2.43
2019-03-31T00:03:11.148Z,1.97
2019-03-31T00:05:41.505Z,2.67
2019-03-31T00:08:11.724Z,2.17
2019-03-31T00:10:42.047Z,3.53
2019-03-31T00:13:12.374Z,2.37
2019-03-31T00:15:42.799Z,3.10
2019-03-31T00:18:13.124Z,2.90
2019-03-31T00:20:43.557Z,1.97
2019-03-31T00:23:13.998Z,2.50
2019-03-31T00:25:49.083Z,2.70
2019-03-31T00:28:19.959Z,2.23
2019-03-31T00:30:50.467Z,2.40
2019-03-31T00:33:20.877Z,2.50
2019-03-31T00:35:51.587Z,2.73
2019-03-31T00:38:21.874Z,2.77
2019-03-31T00:40:52.087Z,2.53
2019-03-31T00:43:22.412Z,2.10
2019-03-31T00:45:52.843Z,2.70
2019-03-31T00:48:23.063Z,2.20
2019-03-31T00:50:53.278Z,2.37
2019-03-31T00:53:23.613Z,3.10
2019-03-31T00:55:54.038Z,2.47
2019-03-31T00:58:24.365Z,2.47
2019-03-31T01:01:14.730Z,2.20
2019-03-31T01:03:45.464Z,2.57
2019-03-31T01:06:16.802Z,2.33
2019-03-31T01:08:47.069Z,3.47
2019-03-31T01:11:19.751Z,3.33
2019-03-31T01:13:49.956Z,2.37
2019-03-31T01:16:20.281Z,3.20
2019-03-31T01:18:50.603Z,2.33
2019-03-31T01:21:21.068Z,2.17
2019-03-31T01:23:51.373Z,3.27
2019-03-31T01:26:22.371Z,2.07
2019-03-31T01:28:53.236Z,2.17
2019-03-31T01:31:23.481Z,2.17
2019-03-31T01:33:53.931Z,2.63
2019-03-31T01:36:24.330Z,2.00
2019-03-31T01:38:54.531Z,2.10
2019-03-31T01:41:24.840Z,2.53
2019-03-31T01:43:55.044Z,2.00
2019-03-31T01:46:25.794Z,1.97
2019-03-31T01:48:56.136Z,1.63
2019-03-31T01:51:26.367Z,2.70
2019-03-31T01:53:56.784Z,1.90
2019-03-31T01:56:27.077Z,2.23
2019-03-31T01:58:57.256Z,2.30
2019-03-31T02:01:27.841Z,2.37
2019-03-31T02:03:58.700Z,2.60
2019-03-31T02:06:29.129Z,1.93
2019-03-31T02:08:59.316Z,2.73
2019-03-31T02:11:29.505Z,2.93
2019-03-31T02:13:59.801Z,1.80
2019-03-31T02:16:30.115Z,1.77
2019-03-31T02:19:00.338Z,1.50
2019-03-31T02:21:30.773Z,1.70
2019-03-31T02:24:01.097Z,2.87
2019-03-31T02:26:31.416Z,1.60
2019-03-31T02:29:01.741Z,2.47
2019-03-31T02:31:32.004Z,2.53
2019-03-31T02:34:02.289Z,2.27
2019-03-31T02:36:33.563Z,3.03
2019-03-31T02:39:03.802Z,2.57
2019-03-31T02:41:34.185Z,1.77
2019-03-31T02:44:04.376Z,2.63
2019-03-31T02:46:34.605Z,1.90
2019-03-31T02:49:04.869Z,1.67
2019-03-31T02:51:35.074Z,2.00
2019-03-31T02:54:05.482Z,2.10
2019-03-31T02:56:35.824Z,2.00
2019-03-31T02:59:06.161Z,1.97
2019-03-31T03:01:36.420Z,2.13
2019-03-31T03:04:08.097Z,3.23
2019-03-31T03:06:38.491Z,2.03
2019-03-31T03:09:08.773Z,2.07
2019-03-31T03:11:39.097Z,2.10
2019-03-31T03:14:09.318Z,2.90
2019-03-31T03:16:39.767Z,2.80
2019-03-31T03:19:10.071Z,2.07
2019-03-31T03:21:40.518Z,2.30
2019-03-31T03:24:13.096Z,1.80
2019-03-31T03:26:43.512Z,3.30
2019-03-31T03:29:13.730Z,2.23
2019-03-31T03:31:44.162Z,1.90
2019-03-31T03:34:14.477Z,2.50
2019-03-31T03:36:44.901Z,2.63
2019-03-31T03:39:15.225Z,1.80
2019-03-31T03:41:45.553Z,2.20
2019-03-31T03:44:15.774Z,2.33
2019-03-31T03:46:46.119Z,1.87
2019-03-31T03:49:16.722Z,1.90
2019-03-31T03:51:47.154Z,1.90
2019-03-31T03:54:17.380Z,2.00
2019-03-31T03:56:47.811Z,1.87
2019-03-31T03:59:18.028Z,2.23
2019-03-31T04:01:48.420Z,1.70
2019-03-31T04:04:18.744Z,1.70
2019-03-31T04:06:49.211Z,1.77
2019-03-31T04:09:19.524Z,1.90
2019-03-31T04:11:49.856Z,2.03
2019-03-31T04:14:20.181Z,1.63
2019-03-31T04:16:50.545Z,2.30
2019-03-31T04:19:20.724Z,1.60
2019-03-31T04:21:51.158Z,1.87
2019-03-31T04:24:21.473Z,2.30
2019-03-31T04:26:51.801Z,2.00
2019-03-31T04:29:22.274Z,2.03
2019-03-31T04:31:52.559Z,1.97
2019-03-31T04:34:22.768Z,2.10
2019-03-31T04:36:53.254Z,2.37
2019-03-31T04:39:23.551Z,1.83
2019-03-31T04:41:53.865Z,1.67
2019-03-31T04:44:24.176Z,2.13
2019-03-31T04:46:54.705Z,2.10
2019-03-31T04:49:25.146Z,1.70
2019-03-31T04:51:55.459Z,2.40
2019-03-31T04:54:25.676Z,1.87
2019-03-31T04:56:56.103Z,1.97
2019-03-31T04:59:26.427Z,1.60
2019-03-31T05:01:56.867Z,2.77
2019-03-31T05:04:27.685Z,2.17
2019-03-31T05:06:58.119Z,1.83
2019-03-31T05:09:28.457Z,2.03
2019-03-31T05:11:58.769Z,2.07
2019-03-31T05:14:29.083Z,1.67
2019-03-31T05:16:59.622Z,1.70
2019-03-31T05:19:29.807Z,1.97
2019-03-31T05:22:00.083Z,1.77
2019-03-31T05:24:30.393Z,2.47
2019-03-31T05:27:00.780Z,1.93
2019-03-31T05:29:30.986Z,3.20
2019-03-31T05:32:01.264Z,3.70
2019-03-31T05:34:31.682Z,1.73
2019-03-31T05:37:02.156Z,1.90
2019-03-31T05:39:32.492Z,1.63
2019-03-31T05:42:02.962Z,1.70
2019-03-31T05:44:33.192Z,2.83
2019-03-31T05:47:03.611Z,1.83
2019-03-31T05:49:33.959Z,2.93
2019-03-31T05:52:04.360Z,5.00
2019-03-31T05:54:35.175Z,10.40
2019-03-31T05:57:05.595Z,7.30
2019-03-31T05:59:35.955Z,4.23
2019-03-31T06:02:06.276Z,5.20
2019-03-31T06:04:36.603Z,5.10
2019-03-31T06:07:07.043Z,2.50
2019-03-31T06:09:37.252Z,2.53
2019-03-31T06:12:07.499Z,7.37
2019-03-31T06:14:37.795Z,2.47
2019-03-31T06:17:08.119Z,2.87
2019-03-31T06:19:38.934Z,2.97
2019-03-31T06:22:09.180Z,4.03
2019-03-31T06:24:39.546Z,3.40
2019-03-31T06:27:09.867Z,1.93
2019-03-31T06:29:40.044Z,3.80
2019-03-31T06:32:10.492Z,4.10
2019-03-31T06:34:47.322Z,2.37
2019-03-31T06:37:12.973Z,2.00
2019-03-31T06:39:43.852Z,2.40
2019-03-31T06:42:14.851Z,4.07
2019-03-31T06:44:45.938Z,1.77
2019-03-31T06:47:17.230Z,4.10
2019-03-31T06:49:48.156Z,2.97
2019-03-31T06:52:19.100Z,3.37
2019-03-31T06:54:49.809Z,2.47
2019-03-31T06:57:20.670Z,5.20
2019-03-31T06:59:51.564Z,3.43
2019-03-31T07:02:22.514Z,3.57
2019-03-31T07:05:01.211Z,2.50
2019-03-31T07:07:28.571Z,3.50
2019-03-31T07:09:59.343Z,3.57
2019-03-31T07:12:29.567Z,5.27
2019-03-31T07:14:59.801Z,4.67
2019-03-31T07:17:30.139Z,7.13
2019-03-31T07:20:00.440Z,5.27
2019-03-31T07:22:30.715Z,3.30
2019-03-31T07:25:01.233Z,5.40
2019-03-31T07:27:31.592Z,3.50
2019-03-31T07:30:01.847Z,7.03
2019-03-31T07:32:32.169Z,8.90
2019-03-31T07:35:02.478Z,10.73
2019-03-31T07:37:46.650Z,8.70
2019-03-31T07:40:08.077Z,8.90
2019-03-31T07:42:38.376Z,6.97
2019-03-31T07:45:08.800Z,8.63
2019-03-31T07:47:39.239Z,4.60
2019-03-31T07:50:10.125Z,4.90
2019-03-31T07:52:40.427Z,3.20
2019-03-31T07:55:10.705Z,6.30
2019-03-31T07:57:41.045Z,5.10
2019-03-31T08:00:14.284Z,4.77
2019-03-31T08:02:44.689Z,4.37
2019-03-31T08:05:15.228Z,5.43
2019-03-31T08:07:45.580Z,7.20
2019-03-31T08:10:16.347Z,4.90
2019-03-31T08:12:46.639Z,6.23
2019-03-31T08:15:16.894Z,8.97
2019-03-31T08:17:47.193Z,7.30
2019-03-31T08:20:17.667Z,7.43
2019-03-31T08:22:48.004Z,6.10
2019-03-31T08:25:18.341Z,7.03
2019-03-31T08:27:48.675Z,3.90
2019-03-31T08:30:20.298Z,5.03
2019-03-31T08:32:50.573Z,5.03
2019-03-31T08:35:20.964Z,6.27
2019-03-31T08:37:51.428Z,7.67
2019-03-31T08:40:21.949Z,6.20
2019-03-31T08:42:52.255Z,4.33
2019-03-31T08:45:22.632Z,3.47
2019-03-31T08:47:52.852Z,4.67
2019-03-31T08:50:23.167Z,5.83
2019-03-31T08:52:53.550Z,6.23
2019-03-31T08:55:23.811Z,4.67
2019-03-31T08:57:54.110Z,4.17
2019-03-31T09:00:43.217Z,3.90
2019-03-31T09:03:13.683Z,7.33
2019-03-31T09:05:44.263Z,4.17
2019-03-31T09:08:14.842Z,7.53
2019-03-31T09:10:45.267Z,2.83
2019-03-31T09:13:16.019Z,7.10
2019-03-31T09:15:46.381Z,4.17
2019-03-31T09:18:16.682Z,6.40
2019-03-31T09:20:46.963Z,5.33
2019-03-31T09:23:17.227Z,4.10
2019-03-31T09:25:47.902Z,4.57
2019-03-31T09:28:18.221Z,5.87
2019-03-31T09:30:48.583Z,6.23
2019-03-31T09:33:18.809Z,12.17
2019-03-31T09:35:49.211Z,7.00
2019-03-31T09:38:19.584Z,10.03
2019-03-31T09:40:49.897Z,12.67
2019-03-31T09:43:20.167Z,11.80
2019-03-31T09:45:51.532Z,6.67
2019-03-31T09:48:24.168Z,12.53
2019-03-31T09:50:56.554Z,5.80
2019-03-31T09:53:26.396Z,7.60
2019-03-31T09:55:56.809Z,7.67
2019-03-31T09:58:27.483Z,7.63
2019-03-31T10:00:57.930Z,10.20
2019-03-31T10:03:28.175Z,5.60
2019-03-31T10:06:10.118Z,8.20
2019-03-31T10:08:31.008Z,5.53
2019-03-31T10:11:02.994Z,4.80
2019-03-31T10:13:33.348Z,6.57
2019-03-31T10:16:03.942Z,5.23
2019-03-31T10:18:34.367Z,9.37
2019-03-31T10:21:04.574Z,6.10
2019-03-31T10:23:34.932Z,7.20
2019-03-31T10:26:05.458Z,11.23
2019-03-31T10:28:35.788Z,9.07
2019-03-31T10:31:06.102Z,14.87
2019-03-31T10:33:36.376Z,50.03
2019-03-31T10:36:06.734Z,83.53
2019-03-31T10:38:37.446Z,107.57
2019-03-31T10:41:07.816Z,95.37
2019-03-31T10:43:38.256Z,91.90
2019-03-31T10:46:08.620Z,87.57
2019-03-31T10:48:38.883Z,77.10
2019-03-31T10:51:09.321Z,99.20
2019-03-31T10:53:39.848Z,68.17
2019-03-31T10:56:10.185Z,59.23
2019-03-31T10:58:40.463Z,60.37
2019-03-31T11:01:10.856Z,50.30
2019-03-31T11:03:41.136Z,57.37
2019-03-31T11:06:12.403Z,55.47
2019-03-31T11:08:42.701Z,46.87
2019-03-31T11:11:12.984Z,48.70
2019-03-31T11:13:43.297Z,48.00
2019-03-31T11:16:13.676Z,50.10
2019-03-31T11:18:44.120Z,41.83
2019-03-31T11:21:21.037Z,43.47
2019-03-31T11:23:51.282Z,43.23
2019-03-31T11:26:21.668Z,36.53
2019-03-31T11:28:52.004Z,38.37
2019-03-31T11:31:22.223Z,43.10
2019-03-31T11:33:52.479Z,38.57
2019-03-31T11:36:22.925Z,31.97
2019-03-31T11:38:53.298Z,37.17
2019-03-31T11:41:24.525Z,30.50
2019-03-31T11:43:54.747Z,33.63
2019-03-31T11:46:25.091Z,28.63
2019-03-31T11:48:55.342Z,30.27
2019-03-31T11:51:25.715Z,34.13
2019-03-31T11:53:55.938Z,25.87
2019-03-31T11:56:26.255Z,28.33
2019-03-31T11:58:56.540Z,26.37
2019-03-31T12:01:26.845Z,22.23
2019-03-31T12:03:57.060Z,24.27
2019-03-31T12:06:28.360Z,25.30
2019-03-31T12:08:58.731Z,24.97
2019-03-31T12:11:29.033Z,23.80
2019-03-31T12:13:59.283Z,17.33
2019-03-31T12:16:29.596Z,27.50
2019-03-31T12:18:59.868Z,22.27
2019-03-31T12:21:30.160Z,20.83
2019-03-31T12:24:00.421Z,20.50
2019-03-31T12:26:30.798Z,20.37
2019-03-31T12:29:19.931Z,20.63
2019-03-31T12:31:50.338Z,16.43
2019-03-31T12:34:20.792Z,18.30
2019-03-31T12:36:51.090Z,14.70
2019-03-31T12:39:21.382Z,16.37
2019-03-31T12:41:51.619Z,15.63
2019-03-31T12:44:24.951Z,19.47
2019-03-31T12:46:56.147Z,16.10
2019-03-31T12:49:25.740Z,19.97
2019-03-31T12:51:56.032Z,13.10
2019-03-31T12:54:26.308Z,13.47
2019-03-31T12:56:56.638Z,17.23
2019-03-31T12:59:27.448Z,18.43
2019-03-31T13:01:58.056Z,13.27
2019-03-31T13:04:28.262Z,12.37
2019-03-31T13:06:58.613Z,10.97
2019-03-31T13:09:28.913Z,13.87
2019-03-31T13:11:59.423Z,13.77
2019-03-31T13:14:29.757Z,14.07
2019-03-31T13:17:01.650Z,14.00
2019-03-31T13:19:32.318Z,13.63
2019-03-31T13:22:02.997Z,21.00
2019-03-31T13:24:33.284Z,13.53
2019-03-31T13:27:03.619Z,11.13
2019-03-31T13:29:34.020Z,8.97
2019-03-31T13:32:04.806Z,13.13
2019-03-31T13:34:35.171Z,9.67
2019-03-31T13:37:05.773Z,11.63
2019-03-31T13:39:36.076Z,10.70
2019-03-31T13:42:06.316Z,9.17
2019-03-31T13:44:36.612Z,11.27
2019-03-31T13:47:06.960Z,12.47
2019-03-31T13:49:37.183Z,11.63
2019-03-31T13:52:07.464Z,10.03
2019-03-31T13:54:37.765Z,7.23
2019-03-31T13:57:08.712Z,8.57
2019-03-31T13:59:39.904Z,9.03
2019-03-31T14:02:10.188Z,11.10
2019-03-31T14:04:51.592Z,10.77
2019-03-31T14:07:12.480Z,16.17
2019-03-31T14:09:42.791Z,19.97
2019-03-31T14:12:13.132Z,15.87
2019-03-31T14:14:43.420Z,12.27
2019-03-31T14:17:13.715Z,13.23
2019-03-31T14:19:44.010Z,11.20
2019-03-31T14:22:20.634Z,14.07
2019-03-31T14:24:54.069Z,11.73
2019-03-31T14:27:24.607Z,14.40
2019-03-31T14:29:54.827Z,10.20
2019-03-31T14:32:25.142Z,11.20
2019-03-31T14:34:55.511Z,10.40
2019-03-31T14:37:45.361Z,12.00
2019-03-31T14:40:15.788Z,10.73
2019-03-31T14:42:46.197Z,10.00
2019-03-31T14:45:32.495Z,7.80
2019-03-31T14:48:03.199Z,10.00
2019-03-31T14:50:37.892Z,8.83
2019-03-31T14:53:08.372Z,8.83
2019-03-31T14:55:38.819Z,11.00
2019-03-31T14:58:09.104Z,13.23
2019-03-31T15:00:39.534Z,26.50
2019-03-31T15:03:09.765Z,29.20
2019-03-31T15:05:40.100Z,24.67
2019-03-31T15:08:10.443Z,44.87
2019-03-31T15:10:40.708Z,28.37
2019-03-31T15:13:10.970Z,34.87
2019-03-31T15:15:40.350Z,36.38
2019-03-31T15:18:10.656Z,30.50
2019-03-31T15:20:40.923Z,32.83
2019-03-31T15:23:11.260Z,33.50
2019-03-31T15:25:43.284Z,35.13
2019-03-31T15:28:13.755Z,30.40
2019-03-31T15:30:44.088Z,38.60
2019-03-31T15:33:13.430Z,41.33
2019-03-31T15:35:43.849Z,65.63
2019-03-31T15:38:15.001Z,52.50
2019-03-31T15:40:48.460Z,51.40
2019-03-31T15:43:18.186Z,48.97
2019-03-31T15:45:48.490Z,49.70
2019-03-31T15:48:18.888Z,50.57
2019-03-31T15:50:49.171Z,44.00
2019-03-31T15:53:19.401Z,39.97
2019-03-31T15:55:49.692Z,41.50
2019-03-31T15:58:20.098Z,40.03
2019-03-31T16:00:50.328Z,35.83
2019-03-31T16:03:20.712Z,34.27
2019-03-31T16:05:51.017Z,37.17
2019-03-31T16:08:20.761Z,34.33
2019-03-31T16:10:50.463Z,34.57
2019-03-31T16:13:20.576Z,36.57
2019-03-31T16:15:50.543Z,34.30
2019-03-31T16:18:20.298Z,27.13
2019-03-31T16:20:50.019Z,29.07
2019-03-31T16:23:19.776Z,30.13
2019-03-31T16:25:52.610Z,35.47
2019-03-31T16:28:22.432Z,35.50
2019-03-31T16:30:52.131Z,34.63
2019-03-31T16:33:21.845Z,36.03
2019-03-31T16:35:51.633Z,35.40
2019-03-31T16:38:21.411Z,31.70
2019-03-31T16:40:51.663Z,37.67
2019-03-31T16:43:21.563Z,32.23
2019-03-31T16:45:51.354Z,29.63
2019-03-31T16:48:21.076Z,32.20
2019-03-31T16:50:50.801Z,41.67
2019-03-31T16:53:20.552Z,90.60
2019-03-31T16:55:50.662Z,55.63
2019-03-31T16:58:26.010Z,47.80
2019-03-31T17:00:55.816Z,59.57
2019-03-31T17:03:25.584Z,58.57
2019-03-31T17:05:55.388Z,47.03
2019-03-31T17:08:25.157Z,38.93
2019-03-31T17:10:54.879Z,42.20
2019-03-31T17:13:24.667Z,33.13
2019-03-31T17:15:54.506Z,34.93
2019-03-31T17:18:24.218Z,32.90
2019-03-31T17:20:54.071Z,35.17
2019-03-31T17:23:23.742Z,24.07
2019-03-31T17:25:53.589Z,26.63
2019-03-31T17:28:23.295Z,24.67
2019-03-31T17:30:53.020Z,20.03
2019-03-31T17:33:22.832Z,20.93
2019-03-31T17:35:52.621Z,18.50
2019-03-31T17:38:22.376Z,17.30
2019-03-31T17:40:52.149Z,18.37
2019-03-31T17:43:21.973Z,21.77
2019-03-31T17:45:51.784Z,15.60
2019-03-31T17:48:21.689Z,14.77
2019-03-31T17:50:51.396Z,15.80
2019-03-31T17:53:21.136Z,21.57
2019-03-31T17:55:50.908Z,14.60
2019-03-31T17:58:20.742Z,13.03
2019-03-31T18:00:50.536Z,13.27
2019-03-31T18:03:20.261Z,12.50
2019-03-31T18:05:50.099Z,12.03
2019-03-31T18:08:19.908Z,13.07
2019-03-31T18:10:49.689Z,13.50
2019-03-31T18:13:19.403Z,16.97
2019-03-31T18:15:49.226Z,13.03
2019-03-31T18:18:18.930Z,14.17
2019-03-31T18:20:48.892Z,15.03
2019-03-31T18:23:18.652Z,14.73
2019-03-31T18:25:48.600Z,18.37
2019-03-31T18:28:18.499Z,14.47
2019-03-31T18:30:48.429Z,15.73
2019-03-31T18:33:18.135Z,13.87
2019-03-31T18:35:48.007Z,13.60
2019-03-31T18:38:17.896Z,9.23
2019-03-31T18:40:49.552Z,16.33
2019-03-31T18:43:19.411Z,8.60
2019-03-31T18:45:49.421Z,9.53
2019-03-31T18:48:19.215Z,9.90
2019-03-31T18:50:48.894Z,9.07
2019-03-31T18:53:31.940Z,9.93
2019-03-31T18:56:12.941Z,12.50
2019-03-31T18:58:54.672Z,8.33
2019-03-31T19:01:43.402Z,10.67
2019-03-31T19:04:37.762Z,9.40
2019-03-31T19:07:26.280Z,9.63
2019-03-31T19:10:23.768Z,5.37
2019-03-31T19:13:12.906Z,9.20
2019-03-31T19:16:07.438Z,8.20
2019-03-31T19:18:58.951Z,7.00
2019-03-31T19:21:47.845Z,7.93
2019-03-31T19:24:39.332Z,7.80
2019-03-31T19:27:32.499Z,7.00
2019-03-31T19:30:19.839Z,7.10
2019-03-31T19:33:01.675Z,4.93
2019-03-31T19:36:02.501Z,7.77
2019-03-31T19:38:45.893Z,9.57
2019-03-31T19:41:43.444Z,8.27
2019-03-31T19:44:33.658Z,7.67
2019-03-31T19:47:25.276Z,9.90
2019-03-31T19:50:11.883Z,9.40
2019-03-31T19:53:09.624Z,6.50
2019-03-31T19:56:07.304Z,6.73
2019-03-31T19:58:48.438Z,9.53
2019-03-31T20:01:39.909Z,5.40
2019-03-31T20:04:31.492Z,7.50
2019-03-31T20:07:18.923Z,9.43
2019-03-31T20:10:22.554Z,9.77
2019-03-31T20:13:11.084Z,9.27
2019-03-31T20:15:56.956Z,10.13
2019-03-31T20:18:34.475Z,6.53
2019-03-31T20:21:32.302Z,4.70
2019-03-31T20:24:19.124Z,5.10
2019-03-31T20:27:08.873Z,5.77
2019-03-31T20:30:06.796Z,6.30
2019-03-31T20:32:54.240Z,3.60
2019-03-31T20:36:01.097Z,5.33
2019-03-31T20:38:55.882Z,4.73
2019-03-31T20:41:43.195Z,6.23
2019-03-31T20:44:13.331Z,5.53
2019-03-31T20:46:43.200Z,4.60
2019-03-31T20:49:12.921Z,5.07
2019-03-31T20:51:42.693Z,4.87
2019-03-31T20:54:12.488Z,4.23
2019-03-31T20:56:44.318Z,8.63
2019-03-31T20:59:14.107Z,6.13
2019-03-31T21:01:43.728Z,4.97
2019-03-31T21:04:13.388Z,4.80
2019-03-31T21:06:43.136Z,6.70
2019-03-31T21:09:13.013Z,4.27
2019-03-31T21:11:42.677Z,5.30
2019-03-31T21:14:12.350Z,4.50
2019-03-31T21:16:42.145Z,7.83
2019-03-31T21:19:11.852Z,6.17
2019-03-31T21:21:41.715Z,7.10
2019-03-31T21:24:11.376Z,4.67
2019-03-31T21:26:41.193Z,4.10
2019-03-31T21:29:10.912Z,4.90
2019-03-31T21:31:40.612Z,10.47
2019-03-31T21:34:10.406Z,4.27
2019-03-31T21:36:40.251Z,4.17
2019-03-31T21:39:10.053Z,4.40
2019-03-31T21:41:39.930Z,3.87
2019-03-31T21:44:09.640Z,5.70
2019-03-31T21:46:39.685Z,4.97
2019-03-31T21:49:09.418Z,6.93
2019-03-31T21:51:39.077Z,5.07
2019-03-31T21:54:09.708Z,5.70
2019-03-31T21:56:39.446Z,4.13
2019-03-31T21:59:09.159Z,3.10
2019-03-31T22:01:38.868Z,3.67
2019-03-31T22:04:08.585Z,2.77
2019-03-31T22:06:38.317Z,3.93
2019-03-31T22:09:10.019Z,4.57
2019-03-31T22:11:39.676Z,2.90
2019-03-31T22:14:10.697Z,3.73
2019-03-31T22:16:40.636Z,3.90
2019-03-31T22:19:10.288Z,6.03
2019-03-31T22:21:39.928Z,2.93
2019-03-31T22:24:09.577Z,4.17
2019-03-31T22:26:39.396Z,5.07
2019-03-31T22:29:09.060Z,2.60
2019-03-31T22:31:38.692Z,2.80
2019-03-31T22:34:08.346Z,3.47
2019-03-31T22:36:38.090Z,3.57
2019-03-31T22:39:07.831Z,3.13
2019-03-31T22:41:37.577Z,4.17
2019-03-31T22:44:07.290Z,4.10
2019-03-31T22:46:36.953Z,4.17
2019-03-31T22:49:06.706Z,2.67
2019-03-31T22:51:36.348Z,2.53
2019-03-31T22:54:05.998Z,3.40
2019-03-31T22:56:35.700Z,2.20
2019-03-31T22:59:05.350Z,3.90
2019-03-31T23:01:35.016Z,2.80
2019-03-31T23:04:04.690Z,3.47
2019-03-31T23:06:34.493Z,2.67
2019-03-31T23:09:05.236Z,2.57
2019-03-31T23:11:34.889Z,3.00
2019-03-31T23:14:04.556Z,2.30
2019-03-31T23:16:34.438Z,3.20
2019-03-31T23:19:04.082Z,3.03
2019-03-31T23:21:33.724Z,3.10
2019-03-31T23:24:03.366Z,2.50
2019-03-31T23:26:52.119Z,2.30
2019-03-31T23:29:22.115Z,2.83
2019-03-31T23:31:51.780Z,2.73
2019-03-31T23:34:21.431Z,3.30
2019-03-31T23:36:51.133Z,2.40
2019-03-31T23:39:20.803Z,2.50
2019-03-31T23:41:50.447Z,3.33
2019-03-31T23:44:20.090Z,2.50
2019-03-31T23:46:49.757Z,3.40
2019-03-31T23:49:19.409Z,2.83
2019-03-31T23:51:49.045Z,2.73
2019-03-31T23:54:18.680Z,3.87
2019-03-31T23:56:48.400Z,2.33
2019-03-31T23:59:18.045Z,2.80
